sensor_id;sensor_type;location;lat;lon;timestamp;P1;durP1;ratioP1;P2;durP2;ratioP2
71238;SDS011;61342;51.442;7.370;2022-11-06T00:00:21;8.47;;;5.37;;
71238;SDS011;61342;51.442;7.370;2022-11-06T00:01:22;7.67;;;5.33;;
71238;SDS011;61342;51.442;7.370;2022-11-06T00:02:22;7.80;;;5.23;;
71238;SDS011;61342;51.442;7.370;2022-11-06T00:03:22;11.07;;;5.27;;
71238;SDS011;61342;51.442;7.370;2022-11-06T00:04:23;9.43;;;6.20;;
71238;SDS011;61342;51.442;7.370;2022-11-06T00:05:24;11.03;;;5.63;;
71238;SDS011;61342;51.442;7.370;2022-11-06T00:06:44;7.33;;;5.30;;
71238;SDS011;61342;51.442;7.370;2022-11-06T00:07:47;7.93;;;5.10;;
71238;SDS011;61342;51.442;7.370;2022-11-06T00:08:47;8.37;;;5.67;;
71238;SDS011;61342;51.442;7.370;2022-11-06T00:09:47;9.13;;;5.20;;
71238;SDS011;61342;51.442;7.370;2022-11-06T00:10:48;10.77;;;5.23;;
71238;SDS011;61342;51.442;7.370;2022-11-06T00:11:48;9.87;;;5.30;;
71238;SDS011;61342;51.442;7.370;2022-11-06T00:12:49;8.93;;;4.90;;
71238;SDS011;61342;51.442;7.370;2022-11-06T00:13:50;8.80;;;5.40;;
71238;SDS011;61342;51.442;7.370;2022-11-06T00:14:53;8.50;;;4.93;;
71238;SDS011;61342;51.442;7.370;2022-11-06T00:15:53;8.50;;;5.53;;
71238;SDS011;61342;51.442;7.370;2022-11-06T00:16:54;8.50;;;4.57;;
71238;SDS011;61342;51.442;7.370;2022-11-06T00:17:54;10.57;;;5.10;;
71238;SDS011;61342;51.442;7.370;2022-11-06T00:18:55;11.17;;;5.00;;
71238;SDS011;61342;51.442;7.370;2022-11-06T00:19:55;7.67;;;4.77;;
71238;SDS011;61342;51.442;7.370;2022-11-06T00:20:55;7.30;;;5.03;;
71238;SDS011;61342;51.442;7.370;2022-11-06T00:21:55;7.33;;;5.07;;
71238;SDS011;61342;51.442;7.370;2022-11-06T00:22:56;10.20;;;5.80;;
71238;SDS011;61342;51.442;7.370;2022-11-06T00:23:57;8.43;;;5.27;;
71238;SDS011;61342;51.442;7.370;2022-11-06T00:24:59;7.90;;;5.50;;
71238;SDS011;61342;51.442;7.370;2022-11-06T00:26:00;9.00;;;5.23;;
71238;SDS011;61342;51.442;7.370;2022-11-06T00:27:04;7.57;;;4.50;;
71238;SDS011;61342;51.442;7.370;2022-11-06T00:28:05;6.73;;;4.80;;
71238;SDS011;61342;51.442;7.370;2022-11-06T00:29:05;11.10;;;5.57;;
71238;SDS011;61342;51.442;7.370;2022-11-06T00:30:06;6.77;;;5.20;;
71238;SDS011;61342;51.442;7.370;2022-11-06T00:31:09;6.83;;;4.63;;
71238;SDS011;61342;51.442;7.370;2022-11-06T00:32:11;9.07;;;5.33;;
71238;SDS011;61342;51.442;7.370;2022-11-06T00:33:12;8.63;;;4.90;;
71238;SDS011;61342;51.442;7.370;2022-11-06T00:34:12;6.67;;;5.00;;
71238;SDS011;61342;51.442;7.370;2022-11-06T00:35:13;6.40;;;4.67;;
71238;SDS011;61342;51.442;7.370;2022-11-06T00:36:18;11.33;;;5.53;;
71238;SDS011;61342;51.442;7.370;2022-11-06T00:37:20;8.27;;;5.07;;
71238;SDS011;61342;51.442;7.370;2022-11-06T00:38:20;7.57;;;4.70;;
71238;SDS011;61342;51.442;7.370;2022-11-06T00:39:21;8.23;;;5.07;;
71238;SDS011;61342;51.442;7.370;2022-11-06T00:40:21;8.27;;;5.00;;
71238;SDS011;61342;51.442;7.370;2022-11-06T00:41:22;9.37;;;4.97;;
71238;SDS011;61342;51.442;7.370;2022-11-06T00:42:23;8.63;;;4.50;;
71238;SDS011;61342;51.442;7.370;2022-11-06T00:43:23;9.73;;;4.67;;
71238;SDS011;61342;51.442;7.370;2022-11-06T00:44:23;6.83;;;4.80;;
71238;SDS011;61342;51.442;7.370;2022-11-06T00:45:24;9.33;;;4.83;;
71238;SDS011;61342;51.442;7.370;2022-11-06T00:46:25;9.50;;;5.10;;
71238;SDS011;61342;51.442;7.370;2022-11-06T00:47:25;13.03;;;4.60;;
71238;SDS011;61342;51.442;7.370;2022-11-06T00:48:26;5.53;;;4.67;;
71238;SDS011;61342;51.442;7.370;2022-11-06T00:49:27;8.23;;;5.00;;
71238;SDS011;61342;51.442;7.370;2022-11-06T00:50:27;7.40;;;4.30;;
71238;SDS011;61342;51.442;7.370;2022-11-06T00:51:29;6.13;;;4.23;;
71238;SDS011;61342;51.442;7.370;2022-11-06T00:52:31;9.33;;;4.87;;
71238;SDS011;61342;51.442;7.370;2022-11-06T00:53:31;7.00;;;4.40;;
71238;SDS011;61342;51.442;7.370;2022-11-06T00:54:31;5.60;;;4.10;;
71238;SDS011;61342;51.442;7.370;2022-11-06T00:55:32;9.47;;;4.47;;
71238;SDS011;61342;51.442;7.370;2022-11-06T00:56:32;8.57;;;4.67;;
71238;SDS011;61342;51.442;7.370;2022-11-06T00:57:33;6.07;;;4.30;;
71238;SDS011;61342;51.442;7.370;2022-11-06T00:58:33;7.40;;;3.80;;
71238;SDS011;61342;51.442;7.370;2022-11-06T00:59:34;6.23;;;4.30;;
71238;SDS011;61342;51.442;7.370;2022-11-06T01:00:34;7.47;;;4.17;;
71238;SDS011;61342;51.442;7.370;2022-11-06T01:01:39;8.00;;;3.77;;
71238;SDS011;61342;51.442;7.370;2022-11-06T01:02:41;8.00;;;3.87;;
71238;SDS011;61342;51.442;7.370;2022-11-06T01:03:42;9.77;;;4.73;;
71238;SDS011;61342;51.442;7.370;2022-11-06T01:04:43;5.87;;;4.13;;
71238;SDS011;61342;51.442;7.370;2022-11-06T01:05:44;8.33;;;4.27;;
71238;SDS011;61342;51.442;7.370;2022-11-06T01:06:45;7.57;;;4.00;;
71238;SDS011;61342;51.442;7.370;2022-11-06T01:07:47;11.17;;;4.30;;
71238;SDS011;61342;51.442;7.370;2022-11-06T01:08:48;5.17;;;3.97;;
71238;SDS011;61342;51.442;7.370;2022-11-06T01:09:49;8.67;;;4.10;;
71238;SDS011;61342;51.442;7.370;2022-11-06T01:10:50;4.37;;;3.83;;
71238;SDS011;61342;51.442;7.370;2022-11-06T01:11:52;8.67;;;4.13;;
71238;SDS011;61342;51.442;7.370;2022-11-06T01:12:54;9.87;;;4.20;;
71238;SDS011;61342;51.442;7.370;2022-11-06T01:13:55;9.30;;;3.90;;
71238;SDS011;61342;51.442;7.370;2022-11-06T01:14:57;7.63;;;4.20;;
71238;SDS011;61342;51.442;7.370;2022-11-06T01:15:57;6.43;;;3.57;;
71238;SDS011;61342;51.442;7.370;2022-11-06T01:16:57;6.47;;;4.00;;
71238;SDS011;61342;51.442;7.370;2022-11-06T01:17:57;4.43;;;3.60;;
71238;SDS011;61342;51.442;7.370;2022-11-06T01:18:59;6.53;;;4.10;;
71238;SDS011;61342;51.442;7.370;2022-11-06T01:20:00;9.23;;;4.40;;
71238;SDS011;61342;51.442;7.370;2022-11-06T01:21:08;6.67;;;3.83;;
71238;SDS011;61342;51.442;7.370;2022-11-06T01:22:19;6.17;;;3.70;;
71238;SDS011;61342;51.442;7.370;2022-11-06T01:23:19;5.57;;;3.80;;
71238;SDS011;61342;51.442;7.370;2022-11-06T01:24:23;5.70;;;3.60;;
71238;SDS011;61342;51.442;7.370;2022-11-06T01:25:25;9.17;;;4.27;;
71238;SDS011;61342;51.442;7.370;2022-11-06T01:26:26;8.37;;;4.57;;
71238;SDS011;61342;51.442;7.370;2022-11-06T01:27:27;13.57;;;4.60;;
71238;SDS011;61342;51.442;7.370;2022-11-06T01:28:27;6.00;;;4.03;;
71238;SDS011;61342;51.442;7.370;2022-11-06T01:29:28;7.33;;;3.73;;
71238;SDS011;61342;51.442;7.370;2022-11-06T01:30:28;8.47;;;3.73;;
71238;SDS011;61342;51.442;7.370;2022-11-06T01:31:30;7.17;;;3.90;;
71238;SDS011;61342;51.442;7.370;2022-11-06T01:32:32;5.57;;;3.60;;
71238;SDS011;61342;51.442;7.370;2022-11-06T01:33:33;9.20;;;4.10;;
71238;SDS011;61342;51.442;7.370;2022-11-06T01:34:34;7.93;;;3.57;;
71238;SDS011;61342;51.442;7.370;2022-11-06T01:35:34;6.67;;;3.70;;
71238;SDS011;61342;51.442;7.370;2022-11-06T01:36:34;7.60;;;3.80;;
71238;SDS011;61342;51.442;7.370;2022-11-06T01:37:35;6.97;;;4.03;;
71238;SDS011;61342;51.442;7.370;2022-11-06T01:38:35;7.80;;;3.73;;
71238;SDS011;61342;51.442;7.370;2022-11-06T01:39:35;6.23;;;3.43;;
71238;SDS011;61342;51.442;7.370;2022-11-06T01:40:40;7.00;;;3.63;;
71238;SDS011;61342;51.442;7.370;2022-11-06T01:41:46;6.93;;;3.67;;
71238;SDS011;61342;51.442;7.370;2022-11-06T01:42:51;4.13;;;3.17;;
71238;SDS011;61342;51.442;7.370;2022-11-06T01:46:13;9.50;;;4.10;;
71238;SDS011;61342;51.442;7.370;2022-11-06T01:48:25;6.90;;;3.47;;
71238;SDS011;61342;51.442;7.370;2022-11-06T01:49:28;7.73;;;4.20;;
71238;SDS011;61342;51.442;7.370;2022-11-06T01:50:32;8.90;;;3.77;;
71238;SDS011;61342;51.442;7.370;2022-11-06T01:51:34;7.40;;;3.97;;
71238;SDS011;61342;51.442;7.370;2022-11-06T01:52:37;5.70;;;3.40;;
71238;SDS011;61342;51.442;7.370;2022-11-06T01:53:38;5.97;;;3.37;;
71238;SDS011;61342;51.442;7.370;2022-11-06T01:54:40;8.70;;;3.73;;
71238;SDS011;61342;51.442;7.370;2022-11-06T01:55:44;10.47;;;3.43;;
71238;SDS011;61342;51.442;7.370;2022-11-06T01:56:46;9.63;;;3.67;;
71238;SDS011;61342;51.442;7.370;2022-11-06T01:57:49;5.80;;;3.50;;
71238;SDS011;61342;51.442;7.370;2022-11-06T01:58:51;6.47;;;3.53;;
71238;SDS011;61342;51.442;7.370;2022-11-06T01:59:54;7.97;;;3.57;;
71238;SDS011;61342;51.442;7.370;2022-11-06T02:00:54;5.33;;;3.53;;
71238;SDS011;61342;51.442;7.370;2022-11-06T02:01:55;6.13;;;3.40;;
71238;SDS011;61342;51.442;7.370;2022-11-06T02:02:55;6.80;;;3.77;;
71238;SDS011;61342;51.442;7.370;2022-11-06T02:03:59;8.97;;;3.70;;
71238;SDS011;61342;51.442;7.370;2022-11-06T02:05:21;8.70;;;3.80;;
71238;SDS011;61342;51.442;7.370;2022-11-06T02:06:22;7.57;;;3.87;;
71238;SDS011;61342;51.442;7.370;2022-11-06T02:07:23;7.43;;;3.37;;
71238;SDS011;61342;51.442;7.370;2022-11-06T02:08:23;8.10;;;3.70;;
71238;SDS011;61342;51.442;7.370;2022-11-06T02:09:24;7.73;;;3.83;;
71238;SDS011;61342;51.442;7.370;2022-11-06T02:10:26;7.70;;;3.57;;
71238;SDS011;61342;51.442;7.370;2022-11-06T02:11:26;7.03;;;3.00;;
71238;SDS011;61342;51.442;7.370;2022-11-06T02:15:18;8.43;;;3.70;;
71238;SDS011;61342;51.442;7.370;2022-11-06T02:17:47;7.30;;;3.40;;
71238;SDS011;61342;51.442;7.370;2022-11-06T02:19:14;7.33;;;3.53;;
71238;SDS011;61342;51.442;7.370;2022-11-06T02:20:31;5.43;;;3.40;;
71238;SDS011;61342;51.442;7.370;2022-11-06T02:21:48;6.07;;;3.50;;
71238;SDS011;61342;51.442;7.370;2022-11-06T02:23:17;9.73;;;3.57;;
71238;SDS011;61342;51.442;7.370;2022-11-06T02:24:41;6.17;;;3.60;;
71238;SDS011;61342;51.442;7.370;2022-11-06T02:29:29;8.00;;;3.53;;
71238;SDS011;61342;51.442;7.370;2022-11-06T02:30:35;8.30;;;3.67;;
71238;SDS011;61342;51.442;7.370;2022-11-06T02:31:43;4.60;;;3.50;;
71238;SDS011;61342;51.442;7.370;2022-11-06T02:33:56;8.83;;;3.23;;
71238;SDS011;61342;51.442;7.370;2022-11-06T02:35:02;5.53;;;3.10;;
71238;SDS011;61342;51.442;7.370;2022-11-06T02:36:14;7.43;;;3.70;;
71238;SDS011;61342;51.442;7.370;2022-11-06T02:37:20;6.17;;;3.27;;
71238;SDS011;61342;51.442;7.370;2022-11-06T02:38:32;8.00;;;3.77;;
71238;SDS011;61342;51.442;7.370;2022-11-06T02:39:37;6.43;;;3.70;;
71238;SDS011;61342;51.442;7.370;2022-11-06T02:40:41;9.60;;;3.47;;
71238;SDS011;61342;51.442;7.370;2022-11-06T02:41:46;3.80;;;3.00;;
71238;SDS011;61342;51.442;7.370;2022-11-06T02:42:49;5.90;;;3.20;;
71238;SDS011;61342;51.442;7.370;2022-11-06T02:43:54;6.67;;;3.80;;
71238;SDS011;61342;51.442;7.370;2022-11-06T02:44:55;6.63;;;3.23;;
71238;SDS011;61342;51.442;7.370;2022-11-06T02:46:00;8.17;;;3.70;;
71238;SDS011;61342;51.442;7.370;2022-11-06T02:47:05;6.27;;;3.40;;
71238;SDS011;61342;51.442;7.370;2022-11-06T02:48:09;8.97;;;3.57;;
71238;SDS011;61342;51.442;7.370;2022-11-06T02:49:15;7.60;;;3.47;;
71238;SDS011;61342;51.442;7.370;2022-11-06T02:50:32;8.43;;;3.60;;
71238;SDS011;61342;51.442;7.370;2022-11-06T02:51:40;4.50;;;3.23;;
71238;SDS011;61342;51.442;7.370;2022-11-06T02:52:55;5.13;;;3.03;;
71238;SDS011;61342;51.442;7.370;2022-11-06T02:54:01;5.10;;;3.20;;
71238;SDS011;61342;51.442;7.370;2022-11-06T02:56:15;11.10;;;3.67;;
71238;SDS011;61342;51.442;7.370;2022-11-06T02:57:19;7.37;;;3.10;;
71238;SDS011;61342;51.442;7.370;2022-11-06T02:58:23;7.67;;;3.27;;
71238;SDS011;61342;51.442;7.370;2022-11-06T02:59:32;6.00;;;3.20;;
71238;SDS011;61342;51.442;7.370;2022-11-06T03:00:41;6.57;;;3.20;;
71238;SDS011;61342;51.442;7.370;2022-11-06T03:01:48;5.33;;;3.27;;
71238;SDS011;61342;51.442;7.370;2022-11-06T03:02:55;7.60;;;3.27;;
71238;SDS011;61342;51.442;7.370;2022-11-06T03:04:02;7.47;;;3.30;;
71238;SDS011;61342;51.442;7.370;2022-11-06T03:05:08;7.60;;;3.30;;
71238;SDS011;61342;51.442;7.370;2022-11-06T03:06:13;3.97;;;3.03;;
71238;SDS011;61342;51.442;7.370;2022-11-06T03:07:30;8.20;;;3.60;;
71238;SDS011;61342;51.442;7.370;2022-11-06T03:08:41;5.00;;;3.07;;
71238;SDS011;61342;51.442;7.370;2022-11-06T03:09:46;5.97;;;3.30;;
71238;SDS011;61342;51.442;7.370;2022-11-06T03:11:05;6.07;;;3.17;;
71238;SDS011;61342;51.442;7.370;2022-11-06T03:12:24;8.30;;;3.33;;
71238;SDS011;61342;51.442;7.370;2022-11-06T03:13:36;5.73;;;3.30;;
71238;SDS011;61342;51.442;7.370;2022-11-06T03:14:40;4.87;;;3.10;;
71238;SDS011;61342;51.442;7.370;2022-11-06T03:15:44;6.27;;;3.23;;
71238;SDS011;61342;51.442;7.370;2022-11-06T03:16:56;4.97;;;2.70;;
71238;SDS011;61342;51.442;7.370;2022-11-06T03:18:14;7.83;;;3.10;;
71238;SDS011;61342;51.442;7.370;2022-11-06T03:20:50;4.70;;;3.00;;
71238;SDS011;61342;51.442;7.370;2022-11-06T03:23:21;8.17;;;2.80;;
71238;SDS011;61342;51.442;7.370;2022-11-06T03:24:28;5.43;;;3.10;;
71238;SDS011;61342;51.442;7.370;2022-11-06T03:25:42;6.20;;;3.00;;
71238;SDS011;61342;51.442;7.370;2022-11-06T03:26:51;8.20;;;3.47;;
71238;SDS011;61342;51.442;7.370;2022-11-06T03:28:11;7.23;;;3.23;;
71238;SDS011;61342;51.442;7.370;2022-11-06T03:29:25;4.90;;;3.17;;
71238;SDS011;61342;51.442;7.370;2022-11-06T03:30:37;5.70;;;3.30;;
71238;SDS011;61342;51.442;7.370;2022-11-06T03:31:45;8.87;;;2.90;;
71238;SDS011;61342;51.442;7.370;2022-11-06T03:34:07;7.17;;;3.57;;
71238;SDS011;61342;51.442;7.370;2022-11-06T03:36:41;6.67;;;3.50;;
71238;SDS011;61342;51.442;7.370;2022-11-06T03:37:56;8.73;;;3.40;;
71238;SDS011;61342;51.442;7.370;2022-11-06T03:39:02;6.37;;;3.37;;
71238;SDS011;61342;51.442;7.370;2022-11-06T03:40:07;11.23;;;3.60;;
71238;SDS011;61342;51.442;7.370;2022-11-06T03:41:18;5.53;;;3.20;;
71238;SDS011;61342;51.442;7.370;2022-11-06T03:42:24;7.07;;;3.63;;
71238;SDS011;61342;51.442;7.370;2022-11-06T03:43:27;6.07;;;2.93;;
71238;SDS011;61342;51.442;7.370;2022-11-06T03:44:35;5.10;;;3.00;;
71238;SDS011;61342;51.442;7.370;2022-11-06T03:45:40;6.00;;;2.93;;
71238;SDS011;61342;51.442;7.370;2022-11-06T03:46:45;6.33;;;3.03;;
71238;SDS011;61342;51.442;7.370;2022-11-06T03:47:51;11.57;;;3.40;;
71238;SDS011;61342;51.442;7.370;2022-11-06T03:49:00;8.17;;;3.23;;
71238;SDS011;61342;51.442;7.370;2022-11-06T03:51:12;6.90;;;2.77;;
71238;SDS011;61342;51.442;7.370;2022-11-06T03:52:39;9.30;;;2.90;;
71238;SDS011;61342;51.442;7.370;2022-11-06T03:53:49;5.07;;;2.80;;
71238;SDS011;61342;51.442;7.370;2022-11-06T03:54:53;6.57;;;3.27;;
71238;SDS011;61342;51.442;7.370;2022-11-06T03:55:59;6.87;;;2.90;;
71238;SDS011;61342;51.442;7.370;2022-11-06T03:57:27;4.93;;;2.97;;
71238;SDS011;61342;51.442;7.370;2022-11-06T03:58:35;6.53;;;3.03;;
71238;SDS011;61342;51.442;7.370;2022-11-06T03:59:38;7.37;;;3.13;;
71238;SDS011;61342;51.442;7.370;2022-11-06T04:00:43;5.50;;;2.93;;
71238;SDS011;61342;51.442;7.370;2022-11-06T04:01:44;4.53;;;2.77;;
71238;SDS011;61342;51.442;7.370;2022-11-06T04:02:49;6.73;;;3.03;;
71238;SDS011;61342;51.442;7.370;2022-11-06T04:04:26;7.90;;;2.97;;
71238;SDS011;61342;51.442;7.370;2022-11-06T04:05:27;4.70;;;2.13;;
71238;SDS011;61342;51.442;7.370;2022-11-06T04:06:29;6.00;;;3.00;;
71238;SDS011;61342;51.442;7.370;2022-11-06T04:07:38;5.50;;;3.10;;
71238;SDS011;61342;51.442;7.370;2022-11-06T04:09:04;8.00;;;3.27;;
71238;SDS011;61342;51.442;7.370;2022-11-06T04:10:27;9.33;;;3.00;;
71238;SDS011;61342;51.442;7.370;2022-11-06T04:11:46;6.77;;;3.10;;
71238;SDS011;61342;51.442;7.370;2022-11-06T04:13:06;6.70;;;3.20;;
71238;SDS011;61342;51.442;7.370;2022-11-06T04:14:26;5.67;;;2.67;;
71238;SDS011;61342;51.442;7.370;2022-11-06T04:15:40;7.50;;;3.00;;
71238;SDS011;61342;51.442;7.370;2022-11-06T04:16:49;6.40;;;3.00;;
71238;SDS011;61342;51.442;7.370;2022-11-06T04:17:57;8.97;;;2.73;;
71238;SDS011;61342;51.442;7.370;2022-11-06T04:18:58;3.13;;;2.80;;
71238;SDS011;61342;51.442;7.370;2022-11-06T04:20:00;9.60;;;3.20;;
71238;SDS011;61342;51.442;7.370;2022-11-06T04:22:54;6.77;;;3.20;;
71238;SDS011;61342;51.442;7.370;2022-11-06T04:24:07;5.93;;;2.50;;
71238;SDS011;61342;51.442;7.370;2022-11-06T04:25:43;5.97;;;2.50;;
71238;SDS011;61342;51.442;7.370;2022-11-06T04:28:35;5.73;;;2.67;;
71238;SDS011;61342;51.442;7.370;2022-11-06T04:31:16;6.77;;;2.83;;
71238;SDS011;61342;51.442;7.370;2022-11-06T04:34:32;4.10;;;2.40;;
71238;SDS011;61342;51.442;7.370;2022-11-06T04:35:36;6.17;;;3.07;;
71238;SDS011;61342;51.442;7.370;2022-11-06T04:37:08;6.87;;;2.90;;
71238;SDS011;61342;51.442;7.370;2022-11-06T04:39:55;7.27;;;2.70;;
71238;SDS011;61342;51.442;7.370;2022-11-06T04:41:32;6.80;;;2.67;;
71238;SDS011;61342;51.442;7.370;2022-11-06T04:42:45;7.37;;;2.83;;
71238;SDS011;61342;51.442;7.370;2022-11-06T04:43:58;4.60;;;2.70;;
71238;SDS011;61342;51.442;7.370;2022-11-06T04:45:05;5.97;;;2.70;;
71238;SDS011;61342;51.442;7.370;2022-11-06T04:46:11;5.70;;;2.57;;
71238;SDS011;61342;51.442;7.370;2022-11-06T04:47:19;7.33;;;3.37;;
71238;SDS011;61342;51.442;7.370;2022-11-06T04:48:21;6.27;;;2.67;;
71238;SDS011;61342;51.442;7.370;2022-11-06T04:49:23;4.53;;;2.60;;
71238;SDS011;61342;51.442;7.370;2022-11-06T04:50:25;6.83;;;2.30;;
71238;SDS011;61342;51.442;7.370;2022-11-06T04:51:29;11.30;;;3.13;;
71238;SDS011;61342;51.442;7.370;2022-11-06T04:52:32;5.87;;;2.70;;
71238;SDS011;61342;51.442;7.370;2022-11-06T04:53:34;6.93;;;2.47;;
71238;SDS011;61342;51.442;7.370;2022-11-06T04:54:35;3.93;;;2.20;;
71238;SDS011;61342;51.442;7.370;2022-11-06T04:55:37;6.93;;;2.40;;
71238;SDS011;61342;51.442;7.370;2022-11-06T04:56:44;5.57;;;2.50;;
71238;SDS011;61342;51.442;7.370;2022-11-06T04:57:45;5.43;;;2.23;;
71238;SDS011;61342;51.442;7.370;2022-11-06T04:58:45;5.73;;;2.70;;
71238;SDS011;61342;51.442;7.370;2022-11-06T04:59:45;6.10;;;2.57;;
71238;SDS011;61342;51.442;7.370;2022-11-06T05:00:47;7.63;;;2.40;;
71238;SDS011;61342;51.442;7.370;2022-11-06T05:01:49;5.03;;;2.27;;
71238;SDS011;61342;51.442;7.370;2022-11-06T05:02:49;9.47;;;2.80;;
71238;SDS011;61342;51.442;7.370;2022-11-06T05:03:50;4.67;;;2.20;;
71238;SDS011;61342;51.442;7.370;2022-11-06T05:04:50;5.73;;;2.40;;
71238;SDS011;61342;51.442;7.370;2022-11-06T05:05:50;2.60;;;1.97;;
71238;SDS011;61342;51.442;7.370;2022-11-06T05:06:51;3.70;;;2.43;;
71238;SDS011;61342;51.442;7.370;2022-11-06T05:07:51;6.13;;;2.63;;
71238;SDS011;61342;51.442;7.370;2022-11-06T05:08:51;5.00;;;2.33;;
71238;SDS011;61342;51.442;7.370;2022-11-06T05:09:52;6.67;;;2.67;;
71238;SDS011;61342;51.442;7.370;2022-11-06T05:10:52;6.97;;;2.80;;
71238;SDS011;61342;51.442;7.370;2022-11-06T05:11:53;3.47;;;2.33;;
71238;SDS011;61342;51.442;7.370;2022-11-06T05:12:54;6.73;;;2.30;;
71238;SDS011;61342;51.442;7.370;2022-11-06T05:13:54;3.03;;;1.93;;
71238;SDS011;61342;51.442;7.370;2022-11-06T05:14:54;8.33;;;2.33;;
71238;SDS011;61342;51.442;7.370;2022-11-06T05:15:55;5.17;;;2.10;;
71238;SDS011;61342;51.442;7.370;2022-11-06T05:16:56;7.07;;;2.20;;
71238;SDS011;61342;51.442;7.370;2022-11-06T05:17:57;4.63;;;2.63;;
71238;SDS011;61342;51.442;7.370;2022-11-06T05:18:57;4.17;;;2.53;;
71238;SDS011;61342;51.442;7.370;2022-11-06T05:19:58;10.10;;;2.47;;
71238;SDS011;61342;51.442;7.370;2022-11-06T05:20:59;5.73;;;2.40;;
71238;SDS011;61342;51.442;7.370;2022-11-06T05:22:18;6.20;;;2.10;;
71238;SDS011;61342;51.442;7.370;2022-11-06T05:23:37;5.27;;;2.40;;
71238;SDS011;61342;51.442;7.370;2022-11-06T05:24:38;6.20;;;2.10;;
71238;SDS011;61342;51.442;7.370;2022-11-06T05:25:39;5.43;;;2.40;;
71238;SDS011;61342;51.442;7.370;2022-11-06T05:26:39;6.57;;;2.47;;
71238;SDS011;61342;51.442;7.370;2022-11-06T05:27:39;4.97;;;2.20;;
71238;SDS011;61342;51.442;7.370;2022-11-06T05:28:40;4.13;;;2.17;;
71238;SDS011;61342;51.442;7.370;2022-11-06T05:29:40;5.93;;;2.70;;
71238;SDS011;61342;51.442;7.370;2022-11-06T05:30:40;4.90;;;2.17;;
71238;SDS011;61342;51.442;7.370;2022-11-06T05:31:40;5.87;;;2.27;;
71238;SDS011;61342;51.442;7.370;2022-11-06T05:32:41;6.23;;;2.20;;
71238;SDS011;61342;51.442;7.370;2022-11-06T05:33:41;7.77;;;2.37;;
71238;SDS011;61342;51.442;7.370;2022-11-06T05:34:42;6.97;;;2.30;;
71238;SDS011;61342;51.442;7.370;2022-11-06T05:35:42;7.53;;;2.07;;
71238;SDS011;61342;51.442;7.370;2022-11-06T05:36:42;3.83;;;2.33;;
71238;SDS011;61342;51.442;7.370;2022-11-06T05:37:43;7.63;;;2.13;;
71238;SDS011;61342;51.442;7.370;2022-11-06T05:38:43;5.90;;;2.43;;
71238;SDS011;61342;51.442;7.370;2022-11-06T05:39:44;8.23;;;2.20;;
71238;SDS011;61342;51.442;7.370;2022-11-06T05:40:44;5.50;;;2.07;;
71238;SDS011;61342;51.442;7.370;2022-11-06T05:41:45;4.20;;;2.60;;
71238;SDS011;61342;51.442;7.370;2022-11-06T05:42:45;7.17;;;2.50;;
71238;SDS011;61342;51.442;7.370;2022-11-06T05:43:45;6.77;;;2.23;;
71238;SDS011;61342;51.442;7.370;2022-11-06T05:44:46;7.50;;;2.43;;
71238;SDS011;61342;51.442;7.370;2022-11-06T05:45:46;6.17;;;2.10;;
71238;SDS011;61342;51.442;7.370;2022-11-06T05:46:46;5.03;;;2.07;;
71238;SDS011;61342;51.442;7.370;2022-11-06T05:47:47;5.60;;;1.90;;
71238;SDS011;61342;51.442;7.370;2022-11-06T05:48:47;5.50;;;2.40;;
71238;SDS011;61342;51.442;7.370;2022-11-06T05:49:47;8.03;;;2.13;;
71238;SDS011;61342;51.442;7.370;2022-11-06T05:50:48;4.93;;;1.93;;
71238;SDS011;61342;51.442;7.370;2022-11-06T05:51:48;7.47;;;2.20;;
71238;SDS011;61342;51.442;7.370;2022-11-06T05:52:48;6.00;;;2.57;;
71238;SDS011;61342;51.442;7.370;2022-11-06T05:53:49;5.80;;;2.33;;
71238;SDS011;61342;51.442;7.370;2022-11-06T05:54:49;4.10;;;2.33;;
71238;SDS011;61342;51.442;7.370;2022-11-06T05:55:49;6.83;;;2.37;;
71238;SDS011;61342;51.442;7.370;2022-11-06T05:56:50;3.60;;;1.97;;
71238;SDS011;61342;51.442;7.370;2022-11-06T05:57:50;5.40;;;1.87;;
71238;SDS011;61342;51.442;7.370;2022-11-06T05:58:50;5.53;;;2.30;;
71238;SDS011;61342;51.442;7.370;2022-11-06T05:59:51;3.13;;;1.87;;
71238;SDS011;61342;51.442;7.370;2022-11-06T06:00:51;6.53;;;2.40;;
71238;SDS011;61342;51.442;7.370;2022-11-06T06:01:53;4.90;;;2.10;;
71238;SDS011;61342;51.442;7.370;2022-11-06T06:02:53;8.70;;;2.23;;
71238;SDS011;61342;51.442;7.370;2022-11-06T06:03:54;5.30;;;2.40;;
71238;SDS011;61342;51.442;7.370;2022-11-06T06:04:54;9.17;;;2.20;;
71238;SDS011;61342;51.442;7.370;2022-11-06T06:05:54;5.60;;;2.20;;
71238;SDS011;61342;51.442;7.370;2022-11-06T06:06:55;5.57;;;2.00;;
71238;SDS011;61342;51.442;7.370;2022-11-06T06:07:55;6.13;;;2.23;;
71238;SDS011;61342;51.442;7.370;2022-11-06T06:08:55;6.57;;;2.10;;
71238;SDS011;61342;51.442;7.370;2022-11-06T06:09:56;5.73;;;2.30;;
71238;SDS011;61342;51.442;7.370;2022-11-06T06:10:56;5.10;;;2.10;;
71238;SDS011;61342;51.442;7.370;2022-11-06T06:11:56;6.47;;;1.97;;
71238;SDS011;61342;51.442;7.370;2022-11-06T06:12:57;4.13;;;1.93;;
71238;SDS011;61342;51.442;7.370;2022-11-06T06:13:58;5.23;;;2.47;;
71238;SDS011;61342;51.442;7.370;2022-11-06T06:14:59;5.93;;;2.33;;
71238;SDS011;61342;51.442;7.370;2022-11-06T06:16:00;5.20;;;2.03;;
71238;SDS011;61342;51.442;7.370;2022-11-06T06:17:01;6.77;;;2.13;;
71238;SDS011;61342;51.442;7.370;2022-11-06T06:18:02;4.93;;;1.97;;
71238;SDS011;61342;51.442;7.370;2022-11-06T06:19:02;5.57;;;1.90;;
71238;SDS011;61342;51.442;7.370;2022-11-06T06:20:03;6.63;;;3.00;;
71238;SDS011;61342;51.442;7.370;2022-11-06T06:21:03;4.87;;;1.93;;
71238;SDS011;61342;51.442;7.370;2022-11-06T06:22:04;5.77;;;2.40;;
71238;SDS011;61342;51.442;7.370;2022-11-06T06:23:04;8.17;;;2.40;;
71238;SDS011;61342;51.442;7.370;2022-11-06T06:24:04;4.97;;;2.10;;
71238;SDS011;61342;51.442;7.370;2022-11-06T06:25:05;7.83;;;2.33;;
71238;SDS011;61342;51.442;7.370;2022-11-06T06:26:06;8.17;;;2.23;;
71238;SDS011;61342;51.442;7.370;2022-11-06T06:27:06;6.53;;;2.17;;
71238;SDS011;61342;51.442;7.370;2022-11-06T06:28:07;4.50;;;1.83;;
71238;SDS011;61342;51.442;7.370;2022-11-06T06:29:07;6.47;;;2.40;;
71238;SDS011;61342;51.442;7.370;2022-11-06T06:30:08;4.73;;;2.00;;
71238;SDS011;61342;51.442;7.370;2022-11-06T06:31:09;8.23;;;3.00;;
71238;SDS011;61342;51.442;7.370;2022-11-06T06:32:09;4.47;;;1.90;;
71238;SDS011;61342;51.442;7.370;2022-11-06T06:33:10;6.90;;;2.43;;
71238;SDS011;61342;51.442;7.370;2022-11-06T06:34:10;5.67;;;2.00;;
71238;SDS011;61342;51.442;7.370;2022-11-06T06:35:10;6.23;;;2.70;;
71238;SDS011;61342;51.442;7.370;2022-11-06T06:36:11;4.43;;;2.07;;
71238;SDS011;61342;51.442;7.370;2022-11-06T06:37:11;2.90;;;1.80;;
71238;SDS011;61342;51.442;7.370;2022-11-06T06:38:11;4.53;;;1.90;;
71238;SDS011;61342;51.442;7.370;2022-11-06T06:39:12;6.53;;;2.30;;
71238;SDS011;61342;51.442;7.370;2022-11-06T06:40:12;5.97;;;2.10;;
71238;SDS011;61342;51.442;7.370;2022-11-06T06:41:12;4.90;;;2.30;;
71238;SDS011;61342;51.442;7.370;2022-11-06T06:42:13;4.43;;;2.07;;
71238;SDS011;61342;51.442;7.370;2022-11-06T06:43:13;5.63;;;2.20;;
71238;SDS011;61342;51.442;7.370;2022-11-06T06:44:13;5.93;;;2.73;;
71238;SDS011;61342;51.442;7.370;2022-11-06T06:45:14;4.93;;;1.93;;
71238;SDS011;61342;51.442;7.370;2022-11-06T06:46:16;5.63;;;2.23;;
71238;SDS011;61342;51.442;7.370;2022-11-06T06:47:16;7.17;;;2.37;;
71238;SDS011;61342;51.442;7.370;2022-11-06T06:48:17;3.90;;;1.77;;
71238;SDS011;61342;51.442;7.370;2022-11-06T06:49:17;5.67;;;2.00;;
71238;SDS011;61342;51.442;7.370;2022-11-06T06:50:17;7.37;;;2.30;;
71238;SDS011;61342;51.442;7.370;2022-11-06T06:51:18;4.70;;;1.70;;
71238;SDS011;61342;51.442;7.370;2022-11-06T06:52:18;4.37;;;2.03;;
71238;SDS011;61342;51.442;7.370;2022-11-06T06:53:18;7.37;;;2.30;;
71238;SDS011;61342;51.442;7.370;2022-11-06T06:54:19;9.10;;;2.07;;
71238;SDS011;61342;51.442;7.370;2022-11-06T06:55:19;6.80;;;2.10;;